createdAt,value
2019-04-22T00:00:28.952Z,1001.04
2019-04-22T00:01:28.631Z,1001.02
2019-04-22T00:02:24.635Z,1000.99
2019-04-22T00:03:33.963Z,1000.99
2019-04-22T00:04:43.666Z,1001.00
2019-04-22T00:05:46.920Z,1000.99
2019-04-22T00:06:51.835Z,1000.99
2019-04-22T00:07:48.295Z,1000.95
2019-04-22T00:08:49.554Z,1000.95
2019-04-22T00:09:51.499Z,1000.97
2019-04-22T00:10:56.103Z,1000.94
2019-04-22T00:11:53.116Z,1000.94
2019-04-22T00:13:55.171Z,1000.94
2019-04-22T00:14:47.741Z,1000.97
2019-04-22T00:15:44.060Z,1000.94
2019-04-22T00:16:51.809Z,1000.99
2019-04-22T00:17:55.243Z,1000.94
2019-04-22T00:19:11.371Z,1000.92
2019-04-22T00:19:55.490Z,1000.89
2019-04-22T00:20:54.547Z,1000.88
2019-04-22T00:21:55.182Z,1000.89
2019-04-22T00:22:44.388Z,1000.85
2019-04-22T00:23:51.955Z,1000.85
2019-04-22T00:24:51.219Z,1000.85
2019-04-22T00:25:57.358Z,1000.84
2019-04-22T00:26:51.573Z,1000.81
2019-04-22T00:28:55.910Z,1000.83
2019-04-22T00:30:00.308Z,1000.80
2019-04-22T00:30:51.328Z,1000.79
2019-04-22T00:31:47.974Z,1000.79
2019-04-22T00:32:42.075Z,1000.76
2019-04-22T00:33:48.066Z,1000.74
2019-04-22T00:34:51.978Z,1000.74
2019-04-22T00:35:52.626Z,1000.76
2019-04-22T00:36:52.397Z,1000.74
2019-04-22T00:37:54.069Z,1000.73
2019-04-22T00:38:51.614Z,1000.73
2019-04-22T00:39:50.259Z,1000.73
2019-04-22T00:41:08.523Z,1000.71
2019-04-22T00:41:52.090Z,1000.69
2019-04-22T00:42:53.079Z,1000.69
2019-04-22T00:43:51.101Z,1000.72
2019-04-22T00:44:53.808Z,1000.70
2019-04-22T00:45:52.321Z,1000.68
2019-04-22T00:46:56.702Z,1000.68
2019-04-22T00:47:46.238Z,1000.68
2019-04-22T00:48:57.584Z,1000.65
2019-04-22T00:50:58.268Z,1000.70
2019-04-22T00:51:52.624Z,1000.65
2019-04-22T00:52:49.284Z,1000.65
2019-04-22T00:53:48.074Z,1000.67
2019-04-22T00:54:56.113Z,1000.65
2019-04-22T00:55:46.325Z,1000.67
2019-04-22T00:56:52.836Z,1000.67
2019-04-22T00:57:46.412Z,1000.65
2019-04-22T00:58:45.388Z,1000.68
2019-04-22T00:59:52.331Z,1000.68
2019-04-22T01:00:54.578Z,1000.68
2019-04-22T01:01:53.967Z,1000.72
2019-04-22T01:03:56.006Z,1000.64
2019-04-22T01:05:09.786Z,1000.65
2019-04-22T01:05:46.623Z,1000.59
2019-04-22T01:06:50.064Z,1000.68
2019-04-22T01:07:51.525Z,1000.64
2019-04-22T01:08:58.553Z,1000.61
2019-04-22T01:09:56.168Z,1000.64
2019-04-22T01:10:52.186Z,1000.63
2019-04-22T01:11:50.551Z,1000.64
2019-04-22T01:12:53.332Z,1000.60
2019-04-22T01:13:52.131Z,1000.59
2019-04-22T01:14:51.946Z,1000.57
2019-04-22T01:15:51.248Z,1000.58
2019-04-22T01:16:48.866Z,1000.58
2019-04-22T01:17:56.244Z,1000.57
2019-04-22T01:18:52.294Z,1000.56
2019-04-22T01:19:47.246Z,1000.52
2019-04-22T01:21:05.971Z,1000.53
2019-04-22T01:21:47.797Z,1000.50
2019-04-22T01:22:46.068Z,1000.50
2019-04-22T01:23:40.757Z,1000.49
2019-04-22T01:24:46.445Z,1000.48
2019-04-22T01:25:46.532Z,1000.46
2019-04-22T01:26:41.918Z,1000.44
2019-04-22T01:27:41.478Z,1000.50
2019-04-22T01:28:34.250Z,1000.49
2019-04-22T01:29:39.905Z,1000.46
2019-04-22T01:30:36.159Z,1000.48
2019-04-22T01:31:28.704Z,1000.46
2019-04-22T01:32:32.204Z,1000.47
2019-04-22T01:33:31.134Z,1000.48
2019-04-22T01:34:40.466Z,1000.42
2019-04-22T01:35:37.459Z,1000.43
2019-04-22T01:36:43.137Z,1000.42
2019-04-22T01:37:44.346Z,1000.45
2019-04-22T01:38:53.190Z,1000.45
2019-04-22T01:39:50.336Z,1000.47
2019-04-22T01:40:57.835Z,1000.41
2019-04-22T01:41:55.373Z,1000.43
2019-04-22T01:42:57.583Z,1000.42
2019-04-22T01:43:58.820Z,1000.43
2019-04-22T01:44:45.490Z,1000.40
2019-04-22T01:45:56.192Z,1000.42
2019-04-22T01:46:53.906Z,1000.40
2019-04-22T01:47:49.401Z,1000.41
2019-04-22T01:48:55.388Z,1000.37
2019-04-22T01:49:46.100Z,1000.37
2019-04-22T01:50:50.218Z,1000.34
2019-04-22T01:52:53.296Z,1000.32
2019-04-22T01:53:50.363Z,1000.32
2019-04-22T01:54:54.594Z,1000.33
2019-04-22T01:55:55.520Z,1000.31
2019-04-22T01:56:55.330Z,1000.32
2019-04-22T01:57:47.523Z,1000.30
2019-04-22T01:58:48.243Z,1000.32
2019-04-22T01:59:41.604Z,1000.28
2019-04-22T02:00:58.227Z,1000.27
2019-04-22T02:01:51.692Z,1000.25
2019-04-22T02:02:48.721Z,1000.27
2019-04-22T02:03:54.886Z,1000.26
2019-04-22T02:04:53.165Z,1000.23
2019-04-22T02:05:53.557Z,1000.23
2019-04-22T02:06:49.569Z,1000.25
2019-04-22T02:07:53.058Z,1000.24
2019-04-22T02:08:54.926Z,1000.24
2019-04-22T02:09:51.943Z,1000.19
2019-04-22T02:11:53.387Z,1000.19
2019-04-22T02:12:53.238Z,1000.17
2019-04-22T02:13:54.394Z,1000.17
2019-04-22T02:15:53.896Z,1000.18
2019-04-22T02:16:54.060Z,1000.20
2019-04-22T02:17:56.285Z,1000.19
2019-04-22T02:18:52.447Z,1000.19
2019-04-22T02:19:54.276Z,1000.18
2019-04-22T02:20:53.027Z,1000.18
2019-04-22T02:21:51.668Z,1000.18
2019-04-22T02:23:02.073Z,1000.14
2019-04-22T02:23:54.055Z,1000.15
2019-04-22T02:24:51.104Z,1000.15
2019-04-22T02:25:56.081Z,1000.18
2019-04-22T02:26:46.816Z,1000.16
2019-04-22T02:27:56.502Z,1000.16
2019-04-22T02:28:47.545Z,1000.15
2019-04-22T02:29:50.108Z,1000.17
2019-04-22T02:31:18.741Z,1000.11
2019-04-22T02:31:58.983Z,1000.13
2019-04-22T02:36:15.050Z,1000.10
2019-04-22T02:36:50.903Z,1000.07
2019-04-22T02:37:54.837Z,1000.04
2019-04-22T02:40:01.594Z,1000.02
2019-04-22T02:41:49.789Z,1000.01
2019-04-22T02:43:01.281Z,1000.00
2019-04-22T02:43:59.512Z,999.95
2019-04-22T02:46:13.535Z,999.98
2019-04-22T02:47:04.359Z,999.98
2019-04-22T02:49:04.023Z,999.95
2019-04-22T02:50:02.502Z,999.98
2019-04-22T02:50:56.314Z,999.96
2019-04-22T02:52:15.754Z,999.93
2019-04-22T02:52:50.446Z,999.94
2019-04-22T02:54:27.426Z,999.92
2019-04-22T02:55:02.680Z,999.88
2019-04-22T02:56:05.574Z,999.88
2019-04-22T02:56:45.594Z,999.91
2019-04-22T02:57:52.667Z,999.87
2019-04-22T02:59:02.417Z,999.84
2019-04-22T03:00:01.113Z,999.86
2019-04-22T03:01:01.269Z,999.83
2019-04-22T03:01:47.097Z,999.86
2019-04-22T03:04:57.967Z,999.83
2019-04-22T03:07:58.775Z,999.80
2019-04-22T03:08:53.804Z,999.76
2019-04-22T03:09:55.415Z,999.79
2019-04-22T03:11:07.666Z,999.78
2019-04-22T03:12:52.194Z,999.77
2019-04-22T03:14:45.668Z,999.74
2019-04-22T03:14:48.398Z,999.73
2019-04-22T03:16:08.060Z,999.71
2019-04-22T03:17:10.615Z,999.71
2019-04-22T03:18:03.193Z,999.67
2019-04-22T03:19:17.418Z,999.64
2019-04-22T03:20:02.721Z,999.61
2019-04-22T03:20:58.204Z,999.64
2019-04-22T03:22:12.667Z,999.65
2019-04-22T03:22:59.979Z,999.66
2019-04-22T03:24:12.153Z,999.64
2019-04-22T03:25:23.603Z,999.62
2019-04-22T03:27:44.192Z,999.56
2019-04-22T03:28:54.855Z,999.60
2019-04-22T03:30:18.876Z,999.56
2019-04-22T03:34:39.343Z,999.62
2019-04-22T03:35:31.129Z,999.61
2019-04-22T03:36:18.407Z,999.62
2019-04-22T03:40:16.126Z,999.60
2019-04-22T03:41:15.399Z,999.54
2019-04-22T03:44:10.200Z,999.58
2019-04-22T03:45:01.221Z,999.55
2019-04-22T03:45:58.771Z,999.56
2019-04-22T03:49:03.862Z,999.56
2019-04-22T03:50:16.304Z,999.56
2019-04-22T03:50:56.731Z,999.60
2019-04-22T03:52:05.645Z,999.59
2019-04-22T03:54:02.817Z,999.58
2019-04-22T03:55:05.191Z,999.62
2019-04-22T03:55:51.307Z,999.57
2019-04-22T03:57:51.975Z,999.53
2019-04-22T03:58:57.175Z,999.53
2019-04-22T04:00:55.846Z,999.54
2019-04-22T04:02:04.278Z,999.53
2019-04-22T04:03:00.980Z,999.53
2019-04-22T04:04:00.666Z,999.54
2019-04-22T04:04:51.019Z,999.54
2019-04-22T04:05:54.084Z,999.55
2019-04-22T04:07:14.960Z,999.52
2019-04-22T04:10:08.077Z,999.53
2019-04-22T04:12:00.089Z,999.52
2019-04-22T04:12:59.946Z,999.52
2019-04-22T04:14:05.328Z,999.48
2019-04-22T04:17:54.973Z,999.50
2019-04-22T04:20:05.710Z,999.49
2019-04-22T04:21:12.525Z,999.51
2019-04-22T04:21:53.557Z,999.51
2019-04-22T04:24:19.042Z,999.47
2019-04-22T04:25:07.830Z,999.46
2019-04-22T04:29:05.970Z,999.47
2019-04-22T04:31:22.568Z,999.54
2019-04-22T04:32:07.228Z,999.55
2019-04-22T04:33:53.905Z,999.56
2019-04-22T04:35:58.693Z,999.58
2019-04-22T04:37:07.491Z,999.53
2019-04-22T04:38:11.580Z,999.54
2019-04-22T04:39:00.637Z,999.52
2019-04-22T04:40:07.889Z,999.55
2019-04-22T04:42:07.359Z,999.54
2019-04-22T04:42:53.767Z,999.56
2019-04-22T04:44:04.354Z,999.51
2019-04-22T04:45:10.963Z,999.47
2019-04-22T04:46:59.132Z,999.49
2019-04-22T04:49:00.974Z,999.47
2019-04-22T04:50:03.322Z,999.50
2019-04-22T04:51:56.151Z,999.51
2019-04-22T04:54:10.384Z,999.50
2019-04-22T04:54:59.367Z,999.53
2019-04-22T04:55:53.950Z,999.50
2019-04-22T04:57:07.466Z,999.53
2019-04-22T04:59:05.543Z,999.54
2019-04-22T05:00:26.224Z,999.58
2019-04-22T05:00:57.746Z,999.55
2019-04-22T05:01:55.545Z,999.57
2019-04-22T05:03:00.480Z,999.56
2019-04-22T05:05:13.850Z,999.59
2019-04-22T05:07:01.560Z,999.57
2019-04-22T05:07:56.403Z,999.60
2019-04-22T05:09:13.514Z,999.60
2019-04-22T05:10:02.233Z,999.59
2019-04-22T05:12:05.353Z,999.61
2019-04-22T05:12:57.380Z,999.58
2019-04-22T05:14:54.971Z,999.57
2019-04-22T05:16:10.875Z,999.60
2019-04-22T05:16:59.749Z,999.57
2019-04-22T05:18:57.211Z,999.56
2019-04-22T05:19:50.334Z,999.62
2019-04-22T05:21:03.966Z,999.62
2019-04-22T05:21:53.298Z,999.61
2019-04-22T05:22:51.087Z,999.64
2019-04-22T05:23:52.448Z,999.64
2019-04-22T05:24:56.502Z,999.68
2019-04-22T05:25:51.439Z,999.67
2019-04-22T05:26:52.694Z,999.64
2019-04-22T05:27:51.023Z,999.66
2019-04-22T05:28:51.668Z,999.67
2019-04-22T05:30:19.827Z,999.69
2019-04-22T05:30:45.802Z,999.63
2019-04-22T05:31:52.096Z,999.63
2019-04-22T05:32:50.449Z,999.62
2019-04-22T05:33:48.226Z,999.67
2019-04-22T05:34:51.380Z,999.66
2019-04-22T05:35:46.536Z,999.71
2019-04-22T05:36:48.382Z,999.69
2019-04-22T05:37:50.664Z,999.72
2019-04-22T05:39:49.536Z,999.71
2019-04-22T05:40:48.049Z,999.70
2019-04-22T05:41:48.653Z,999.71
2019-04-22T05:42:51.597Z,999.73
2019-04-22T05:43:50.139Z,999.70
2019-04-22T05:44:52.914Z,999.70
2019-04-22T05:45:43.089Z,999.74
2019-04-22T05:46:47.905Z,999.71
2019-04-22T05:47:52.038Z,999.73
2019-04-22T05:48:53.848Z,999.71
2019-04-22T05:49:41.705Z,999.70
2019-04-22T05:50:47.298Z,999.70
2019-04-22T05:52:03.156Z,999.73
2019-04-22T05:52:49.882Z,999.73
2019-04-22T05:53:48.308Z,999.75
2019-04-22T05:54:48.183Z,999.73
2019-04-22T05:55:48.928Z,999.71
2019-04-22T05:56:39.492Z,999.69
2019-04-22T05:57:45.722Z,999.70
2019-04-22T05:58:56.571Z,999.69
2019-04-22T05:59:52.177Z,999.65
2019-04-22T06:01:12.747Z,999.69
2019-04-22T06:02:53.418Z,999.71
2019-04-22T06:03:51.064Z,999.66
2019-04-22T06:04:53.151Z,999.66
2019-04-22T06:05:47.296Z,999.66
2019-04-22T06:06:46.906Z,999.67
2019-04-22T06:07:45.659Z,999.64
2019-04-22T06:08:48.567Z,999.66
2019-04-22T06:09:38.920Z,999.64
2019-04-22T06:11:41.071Z,999.58
2019-04-22T06:12:43.245Z,999.60
2019-04-22T06:13:38.662Z,999.58
2019-04-22T06:14:47.434Z,999.55
2019-04-22T06:15:44.148Z,999.53
2019-04-22T06:16:53.223Z,999.54
2019-04-22T06:17:59.015Z,999.55
2019-04-22T06:18:47.576Z,999.54
2019-04-22T06:19:49.073Z,999.52
2019-04-22T06:20:54.010Z,999.51
2019-04-22T06:21:48.688Z,999.50
2019-04-22T06:22:50.819Z,999.47
2019-04-22T06:23:54.647Z,999.52
2019-04-22T06:24:49.099Z,999.50
2019-04-22T06:26:07.893Z,999.52
2019-04-22T06:27:51.179Z,999.51
2019-04-22T06:28:48.482Z,999.49
2019-04-22T06:29:41.385Z,999.49
2019-04-22T06:30:53.897Z,999.46
2019-04-22T06:32:15.303Z,999.44
2019-04-22T06:32:47.246Z,999.49
2019-04-22T06:33:48.138Z,999.44
2019-04-22T06:34:48.697Z,999.45
2019-04-22T06:35:54.517Z,999.40
2019-04-22T06:36:51.194Z,999.36
2019-04-22T06:38:12.414Z,999.36
2019-04-22T06:38:48.431Z,999.40
2019-04-22T06:39:46.701Z,999.36
2019-04-22T06:40:52.134Z,999.39
2019-04-22T06:41:47.911Z,999.33
2019-04-22T06:42:51.953Z,999.34
2019-04-22T06:43:53.967Z,999.33
2019-04-22T06:44:51.597Z,999.30
2019-04-22T06:45:44.896Z,999.28
2019-04-22T06:46:47.720Z,999.30
2019-04-22T06:48:41.021Z,999.22
2019-04-22T06:49:53.049Z,999.28
2019-04-22T06:50:48.874Z,999.25
2019-04-22T06:51:45.413Z,999.26
2019-04-22T06:52:49.647Z,999.22
2019-04-22T06:53:47.366Z,999.21
2019-04-22T06:54:50.389Z,999.20
2019-04-22T06:55:48.476Z,999.19
2019-04-22T06:56:49.184Z,999.17
2019-04-22T06:57:46.636Z,999.17
2019-04-22T06:58:45.733Z,999.18
2019-04-22T06:59:52.134Z,999.16
2019-04-22T07:01:54.753Z,999.17
2019-04-22T07:03:13.797Z,999.15
2019-04-22T07:03:57.057Z,999.13
2019-04-22T07:04:55.112Z,999.10
2019-04-22T07:05:46.401Z,999.12
2019-04-22T07:06:48.517Z,999.12
2019-04-22T07:07:45.613Z,999.15
2019-04-22T07:09:48.766Z,999.13
2019-04-22T07:10:56.283Z,999.13
2019-04-22T07:11:48.311Z,999.13
2019-04-22T07:13:01.193Z,999.15
2019-04-22T07:13:48.551Z,999.14
2019-04-22T07:14:50.526Z,999.09
2019-04-22T07:15:50.413Z,999.10
2019-04-22T07:17:03.749Z,999.09
2019-04-22T07:17:49.157Z,999.08
2019-04-22T07:19:05.673Z,999.07
2019-04-22T07:19:43.685Z,999.09
2019-04-22T07:20:52.128Z,999.08
2019-04-22T07:21:44.038Z,999.05
2019-04-22T07:22:45.811Z,999.08
2019-04-22T07:23:54.334Z,999.09
2019-04-22T07:24:47.788Z,999.09
2019-04-22T07:25:45.167Z,999.04
2019-04-22T07:26:45.133Z,999.02
2019-04-22T07:27:50.598Z,999.03
2019-04-22T07:28:46.656Z,999.00
2019-04-22T07:29:49.255Z,999.02
2019-04-22T07:30:46.073Z,999.03
2019-04-22T07:31:49.799Z,999.01
2019-04-22T07:33:05.052Z,998.97
2019-04-22T07:33:43.784Z,998.97
2019-04-22T07:34:45.854Z,998.98
2019-04-22T07:36:25.450Z,998.98
2019-04-22T07:37:12.615Z,998.99
2019-04-22T07:37:46.996Z,998.95
2019-04-22T07:38:45.607Z,998.95
2019-04-22T07:39:45.801Z,998.92
2019-04-22T07:40:50.595Z,998.94
2019-04-22T07:41:43.329Z,998.93
2019-04-22T07:43:59.695Z,998.93
2019-04-22T07:46:00.681Z,998.88
2019-04-22T07:46:51.616Z,998.91
2019-04-22T07:48:53.154Z,998.88
2019-04-22T07:49:53.132Z,998.86
2019-04-22T07:51:02.555Z,998.85
2019-04-22T07:51:44.516Z,998.83
2019-04-22T07:52:46.933Z,998.81
2019-04-22T07:53:45.584Z,998.79
2019-04-22T07:54:46.730Z,998.78
2019-04-22T07:55:45.356Z,998.77
2019-04-22T07:56:50.787Z,998.79
2019-04-22T07:57:44.507Z,998.80
2019-04-22T07:58:46.486Z,998.77
2019-04-22T07:59:49.448Z,998.74
2019-04-22T08:00:44.807Z,998.73
2019-04-22T08:01:43.913Z,998.75
2019-04-22T08:02:51.725Z,998.70
2019-04-22T08:04:05.537Z,998.70
2019-04-22T08:05:01.952Z,998.69
2019-04-22T08:06:52.323Z,998.63
2019-04-22T08:07:49.419Z,998.67
2019-04-22T08:08:47.481Z,998.66
2019-04-22T08:09:57.985Z,998.65
2019-04-22T08:10:49.621Z,998.62
2019-04-22T08:11:50.002Z,998.64
2019-04-22T08:12:47.301Z,998.62
2019-04-22T08:13:59.001Z,998.65
2019-04-22T08:14:45.971Z,998.61
2019-04-22T08:15:51.307Z,998.57
2019-04-22T08:16:51.965Z,998.56
2019-04-22T08:17:59.875Z,998.54
2019-04-22T08:18:51.078Z,998.55
2019-04-22T08:19:50.500Z,998.52
2019-04-22T08:20:52.080Z,998.52
2019-04-22T08:21:48.183Z,998.50
2019-04-22T08:22:51.163Z,998.47
2019-04-22T08:23:50.857Z,998.48
2019-04-22T08:24:51.424Z,998.46
2019-04-22T08:25:43.189Z,998.44
2019-04-22T08:26:46.809Z,998.43
2019-04-22T08:27:55.057Z,998.39
2019-04-22T08:29:55.249Z,998.38
2019-04-22T08:30:48.954Z,998.32
2019-04-22T08:31:49.650Z,998.30
2019-04-22T08:32:46.341Z,998.27
2019-04-22T08:33:46.689Z,998.22
2019-04-22T08:34:42.199Z,998.25
2019-04-22T08:36:00.792Z,998.28
2019-04-22T08:37:58.360Z,998.20
2019-04-22T08:39:01.997Z,998.19
2019-04-22T08:39:58.289Z,998.23
2019-04-22T08:40:47.152Z,998.22
2019-04-22T08:41:39.934Z,998.20
2019-04-22T08:42:56.243Z,998.18
2019-04-22T08:43:56.619Z,998.17
2019-04-22T08:45:08.015Z,998.15
2019-04-22T08:45:57.010Z,998.17
2019-04-22T08:46:48.927Z,998.18
2019-04-22T08:47:41.940Z,998.20
2019-04-22T08:48:49.568Z,998.18
2019-04-22T08:49:59.632Z,998.18
2019-04-22T08:50:48.898Z,998.19
2019-04-22T08:51:46.056Z,998.19
2019-04-22T08:52:53.527Z,998.21
2019-04-22T08:53:41.496Z,998.20
2019-04-22T08:55:04.041Z,998.18
2019-04-22T08:55:57.872Z,998.22
2019-04-22T08:56:45.027Z,998.13
2019-04-22T08:58:06.765Z,998.21
2019-04-22T08:58:50.149Z,998.26
2019-04-22T08:59:50.145Z,998.22
2019-04-22T09:00:51.808Z,998.25
2019-04-22T09:01:43.494Z,998.17
2019-04-22T09:02:51.569Z,998.20
2019-04-22T09:03:49.417Z,998.15
2019-04-22T09:04:45.466Z,998.10
2019-04-22T09:06:01.415Z,998.17
2019-04-22T09:07:02.480Z,998.09
2019-04-22T09:07:48.595Z,998.07
2019-04-22T09:08:48.748Z,998.13
2019-04-22T09:09:44.452Z,998.11
2019-04-22T09:11:47.061Z,998.06
2019-04-22T09:13:49.830Z,998.09
2019-04-22T09:15:42.402Z,997.96
2019-04-22T09:16:46.012Z,998.01
2019-04-22T09:17:49.750Z,998.01
2019-04-22T09:18:48.521Z,997.97
2019-04-22T09:19:49.207Z,998.02
2019-04-22T09:20:51.458Z,997.96
2019-04-22T09:21:54.424Z,997.94
2019-04-22T09:22:48.682Z,997.93
2019-04-22T09:23:54.899Z,997.92
2019-04-22T09:24:48.830Z,997.90
2019-04-22T09:26:03.808Z,997.86
2019-04-22T09:26:51.387Z,997.94
2019-04-22T09:27:51.169Z,997.87
2019-04-22T09:28:56.101Z,997.83
2019-04-22T09:29:44.048Z,997.83
2019-04-22T09:30:52.422Z,997.88
2019-04-22T09:31:52.024Z,997.77
2019-04-22T09:32:45.257Z,997.83
2019-04-22T09:33:43.114Z,997.79
2019-04-22T09:34:50.238Z,997.76
2019-04-22T09:35:51.679Z,997.77
2019-04-22T09:36:50.402Z,997.77
2019-04-22T09:37:50.295Z,997.85
2019-04-22T09:39:51.172Z,997.77
2019-04-22T09:41:02.048Z,997.77
2019-04-22T09:41:46.230Z,997.79
2019-04-22T09:43:58.335Z,997.72
2019-04-22T09:44:47.617Z,997.68
2019-04-22T09:45:36.089Z,997.73
2019-04-22T09:46:46.754Z,997.64
2019-04-22T09:47:52.587Z,997.67
2019-04-22T09:48:54.094Z,997.68
2019-04-22T09:49:53.178Z,997.53
2019-04-22T09:51:03.773Z,997.54
2019-04-22T09:51:44.851Z,997.53
2019-04-22T09:52:51.607Z,997.52
2019-04-22T09:53:57.623Z,997.47
2019-04-22T09:54:57.857Z,997.52
2019-04-22T09:55:45.102Z,997.52
2019-04-22T09:57:46.924Z,997.46
2019-04-22T09:58:53.556Z,997.49
2019-04-22T09:59:54.165Z,997.48
2019-04-22T10:01:00.484Z,997.45
2019-04-22T10:02:02.434Z,997.49
2019-04-22T10:02:48.451Z,997.47
2019-04-22T10:03:51.691Z,997.41
2019-04-22T10:04:39.798Z,997.44
2019-04-22T10:05:51.863Z,997.38
2019-04-22T10:06:42.327Z,997.35
2019-04-22T10:07:49.818Z,997.35
2019-04-22T10:10:48.735Z,997.36
2019-04-22T10:11:45.160Z,997.31
2019-04-22T10:13:50.822Z,997.26
2019-04-22T10:14:54.021Z,997.32
2019-04-22T10:15:50.501Z,997.31
2019-04-22T10:17:47.808Z,997.26
2019-04-22T10:18:49.110Z,997.22
2019-04-22T10:19:49.427Z,997.20
2019-04-22T10:20:46.082Z,997.27
2019-04-22T10:21:57.191Z,997.22
2019-04-22T10:22:46.467Z,997.17
2019-04-22T10:23:45.437Z,997.26
2019-04-22T10:24:48.133Z,997.24
2019-04-22T10:25:46.148Z,997.20
2019-04-22T10:26:43.853Z,997.19
2019-04-22T10:27:51.426Z,997.26
2019-04-22T10:28:52.789Z,997.10
2019-04-22T10:30:00.173Z,997.18
2019-04-22T10:30:47.402Z,997.24
2019-04-22T10:31:43.663Z,997.20
2019-04-22T10:32:43.005Z,997.31
2019-04-22T10:33:38.186Z,997.16
2019-04-22T10:34:32.521Z,997.10
2019-04-22T10:35:23.600Z,997.05
2019-04-22T10:36:21.467Z,997.12
2019-04-22T10:37:23.729Z,997.14
2019-04-22T10:38:20.455Z,997.11
2019-04-22T10:39:23.901Z,997.05
2019-04-22T10:40:21.742Z,997.00
2019-04-22T10:41:20.758Z,997.06
2019-04-22T10:42:20.858Z,996.96
2019-04-22T10:43:21.102Z,997.07
2019-04-22T10:44:21.343Z,997.04
2019-04-22T10:45:21.841Z,997.05
2019-04-22T10:46:21.900Z,996.98
2019-04-22T10:47:20.451Z,996.98
2019-04-22T10:48:21.860Z,996.87
2019-04-22T10:49:20.454Z,996.97
2019-04-22T10:50:20.672Z,996.91
2019-04-22T10:51:20.462Z,996.97
2019-04-22T10:52:21.618Z,996.90
2019-04-22T10:53:21.697Z,996.90
2019-04-22T10:54:20.450Z,996.88
2019-04-22T10:55:21.322Z,996.80
2019-04-22T10:56:20.929Z,996.76
2019-04-22T10:57:20.447Z,996.72
2019-04-22T10:58:20.951Z,996.77
2019-04-22T10:59:20.695Z,996.79
2019-04-22T11:00:21.675Z,996.74
2019-04-22T11:01:21.248Z,996.71
2019-04-22T11:02:21.484Z,996.70
2019-04-22T11:03:20.500Z,996.70
2019-04-22T11:04:21.618Z,996.71
2019-04-22T11:05:21.875Z,996.82
2019-04-22T11:06:21.302Z,996.73
2019-04-22T11:07:25.214Z,996.68
2019-04-22T11:08:31.524Z,996.60
2019-04-22T11:09:23.349Z,996.61
2019-04-22T11:10:36.751Z,996.62
2019-04-22T11:11:32.493Z,996.67
2019-04-22T11:12:23.363Z,996.62
2019-04-22T11:13:22.103Z,996.67
2019-04-22T11:14:21.082Z,996.67
2019-04-22T11:15:20.439Z,996.65
2019-04-22T11:16:21.424Z,996.59
2019-04-22T11:17:21.768Z,996.55
2019-04-22T11:18:20.438Z,996.54
2019-04-22T11:19:21.405Z,996.63
2019-04-22T11:20:21.646Z,996.58
2019-04-22T11:21:20.437Z,996.56
2019-04-22T11:22:24.388Z,996.60
2019-04-22T11:23:20.638Z,996.61
2019-04-22T11:24:20.987Z,996.51
2019-04-22T11:25:21.630Z,996.51
2019-04-22T11:26:21.806Z,996.50
2019-04-22T11:27:21.194Z,996.58
2019-04-22T11:28:20.458Z,996.54
2019-04-22T11:29:21.405Z,996.54
2019-04-22T11:30:24.077Z,996.43
2019-04-22T11:31:20.745Z,996.46
2019-04-22T11:32:20.433Z,996.31
2019-04-22T11:33:20.678Z,996.45
2019-04-22T11:34:21.371Z,996.38
2019-04-22T11:35:21.870Z,996.38
2019-04-22T11:36:21.720Z,996.32
2019-04-22T11:37:20.790Z,996.46
2019-04-22T11:38:20.441Z,996.34
2019-04-22T11:39:21.787Z,996.39
2019-04-22T11:40:28.537Z,996.35
2019-04-22T11:41:21.555Z,996.39
2019-04-22T11:42:20.560Z,996.31
2019-04-22T11:43:21.839Z,996.34
2019-04-22T11:44:21.361Z,996.38
2019-04-22T11:45:21.537Z,996.50
2019-04-22T11:46:21.090Z,996.39
2019-04-22T11:47:21.397Z,996.36
2019-04-22T11:48:21.451Z,996.31
2019-04-22T11:49:21.679Z,996.30
2019-04-22T11:50:21.765Z,996.28
2019-04-22T11:51:20.423Z,996.27
2019-04-22T11:52:20.495Z,996.46
2019-04-22T11:53:20.728Z,996.30
2019-04-22T11:54:21.054Z,996.28
2019-04-22T11:55:20.427Z,996.26
2019-04-22T11:56:20.778Z,996.35
2019-04-22T11:57:21.172Z,996.29
2019-04-22T11:58:21.196Z,996.33
2019-04-22T11:59:20.592Z,996.35
2019-04-22T12:00:20.961Z,996.33
2019-04-22T12:01:20.970Z,996.30
2019-04-22T12:02:21.960Z,996.24
2019-04-22T12:03:21.039Z,996.22
2019-04-22T12:04:20.415Z,996.27
2019-04-22T12:05:21.743Z,996.20
2019-04-22T12:06:21.957Z,996.21
2019-04-22T12:07:21.297Z,996.32
2019-04-22T12:08:20.799Z,996.12
2019-04-22T12:09:21.562Z,996.22
2019-04-22T12:10:29.611Z,996.16
2019-04-22T12:11:20.719Z,996.25
2019-04-22T12:12:21.573Z,996.35
2019-04-22T12:13:21.810Z,996.18
2019-04-22T12:14:20.407Z,996.25
2019-04-22T12:15:20.408Z,996.14
2019-04-22T12:16:21.276Z,996.15
2019-04-22T12:17:20.404Z,996.22
2019-04-22T12:18:21.204Z,996.22
2019-04-22T12:19:20.931Z,996.19
2019-04-22T12:20:21.745Z,996.10
2019-04-22T12:21:21.428Z,996.25
2019-04-22T12:22:20.901Z,996.17
2019-04-22T12:23:21.098Z,996.18
2019-04-22T12:24:21.468Z,996.20
2019-04-22T12:25:32.107Z,996.14
2019-04-22T12:26:21.456Z,996.12
2019-04-22T12:27:22.033Z,996.18
2019-04-22T12:28:21.255Z,996.20
2019-04-22T12:29:20.729Z,996.23
2019-04-22T12:30:21.374Z,996.20
2019-04-22T12:31:21.711Z,996.19
2019-04-22T12:32:21.279Z,996.12
2019-04-22T12:33:21.216Z,996.06
2019-04-22T12:34:21.527Z,996.18
2019-04-22T12:35:20.859Z,996.07
2019-04-22T12:36:20.407Z,996.05
2019-04-22T12:37:27.401Z,996.04
2019-04-22T12:38:21.975Z,996.05
2019-04-22T12:39:21.329Z,995.99
2019-04-22T12:40:31.428Z,996.03
2019-04-22T12:41:21.626Z,995.91
2019-04-22T12:42:21.487Z,995.98
2019-04-22T12:43:22.352Z,995.87
2019-04-22T12:44:20.382Z,995.85
2019-04-22T12:45:20.513Z,995.74
2019-04-22T12:46:20.544Z,995.89
2019-04-22T12:47:20.381Z,995.81
2019-04-22T12:48:21.341Z,995.83
2019-04-22T12:49:20.432Z,995.77
2019-04-22T12:50:26.066Z,995.72
2019-04-22T12:51:20.907Z,995.75
2019-04-22T12:52:26.593Z,995.63
2019-04-22T12:53:25.344Z,995.62
2019-04-22T12:54:21.439Z,995.60
2019-04-22T12:55:21.694Z,995.60
2019-04-22T12:56:21.731Z,995.62
2019-04-22T12:57:20.711Z,995.62
2019-04-22T12:58:20.536Z,995.63
2019-04-22T12:59:21.483Z,995.65
2019-04-22T13:00:20.646Z,995.56
2019-04-22T13:01:21.219Z,995.64
2019-04-22T13:02:20.907Z,995.52
2019-04-22T13:03:20.477Z,995.60
2019-04-22T13:04:22.925Z,995.64
2019-04-22T13:05:20.369Z,995.68
2019-04-22T13:06:21.568Z,995.61
2019-04-22T13:07:21.546Z,995.64
2019-04-22T13:08:20.365Z,995.62
2019-04-22T13:09:21.237Z,995.55
2019-04-22T13:10:21.851Z,995.61
2019-04-22T13:11:27.946Z,995.66
2019-04-22T13:12:22.342Z,995.54
2019-04-22T13:13:20.777Z,995.56
2019-04-22T13:14:21.184Z,995.52
2019-04-22T13:15:20.360Z,995.67
2019-04-22T13:16:20.674Z,995.54
2019-04-22T13:17:20.887Z,995.61
2019-04-22T13:18:30.812Z,995.58
2019-04-22T13:19:22.755Z,995.52
2019-04-22T13:20:22.003Z,995.53
2019-04-22T13:21:20.568Z,995.51
2019-04-22T13:22:21.069Z,995.56
2019-04-22T13:23:20.353Z,995.46
2019-04-22T13:24:21.696Z,995.50
2019-04-22T13:25:23.305Z,995.61
2019-04-22T13:26:21.133Z,995.49
2019-04-22T13:27:21.214Z,995.43
2019-04-22T13:28:21.036Z,995.41
2019-04-22T13:29:21.305Z,995.50
2019-04-22T13:30:20.805Z,995.42
2019-04-22T13:31:20.868Z,995.40
2019-04-22T13:32:20.792Z,995.29
2019-04-22T13:33:20.989Z,995.32
2019-04-22T13:34:29.531Z,995.47
2019-04-22T13:35:22.129Z,995.44
2019-04-22T13:36:22.734Z,995.34
2019-04-22T13:37:20.928Z,995.32
2019-04-22T13:38:20.343Z,995.32
2019-04-22T13:39:20.884Z,995.28
2019-04-22T13:40:21.097Z,995.24
2019-04-22T13:41:31.081Z,995.33
2019-04-22T13:42:22.150Z,995.25
2019-04-22T13:43:20.780Z,995.31
2019-04-22T13:44:20.862Z,995.24
2019-04-22T13:45:20.338Z,995.28